sensor_id;sensor_type;location;lat;lon;timestamp;pressure;altitude;pressure_sealevel;temperature;humidity
84957;BME280;75252;45.438;-73.814;2024-01-15T00:05:00;100636.44;;;-5.01;79.21
84957;BME280;75252;45.438;-73.814;2024-01-15T00:07:26;100635.47;;;-5.06;78.45
84957;BME280;75252;45.438;-73.814;2024-01-15T00:09:55;100655.25;;;-5.07;77.37
84957;BME280;75252;45.438;-73.814;2024-01-15T00:12:21;100658.72;;;-5.08;77.17
84957;BME280;75252;45.438;-73.814;2024-01-15T00:14:47;100663.91;;;-5.05;76.84
84957;BME280;75252;45.438;-73.814;2024-01-15T00:17:12;100679.44;;;-5.05;77.23
84957;BME280;75252;45.438;-73.814;2024-01-15T00:19:39;100677.75;;;-5.03;76.88
84957;BME280;75252;45.438;-73.814;2024-01-15T00:22:04;100681.41;;;-4.92;76.06
84957;BME280;75252;45.438;-73.814;2024-01-15T00:24:30;100687.47;;;-4.90;76.30
84957;BME280;75252;45.438;-73.814;2024-01-15T00:26:56;100687.53;;;-4.87;75.90
84957;BME280;75252;45.438;-73.814;2024-01-15T00:29:22;100684.94;;;-4.85;76.24
84957;BME280;75252;45.438;-73.814;2024-01-15T00:31:48;100680.69;;;-4.83;75.37
84957;BME280;75252;45.438;-73.814;2024-01-15T00:34:14;100689.97;;;-4.94;75.88
84957;BME280;75252;45.438;-73.814;2024-01-15T00:36:40;100701.25;;;-4.89;75.56
84957;BME280;75252;45.438;-73.814;2024-01-15T00:39:05;100696.13;;;-4.88;74.18
84957;BME280;75252;45.438;-73.814;2024-01-15T00:41:31;100702.09;;;-4.92;74.72
84957;BME280;75252;45.438;-73.814;2024-01-15T00:43:57;100709.00;;;-4.89;73.44
84957;BME280;75252;45.438;-73.814;2024-01-15T00:46:23;100717.75;;;-4.84;73.37
84957;BME280;75252;45.438;-73.814;2024-01-15T00:48:49;100723.69;;;-4.88;73.68
84957;BME280;75252;45.438;-73.814;2024-01-15T00:51:15;100723.69;;;-4.88;73.18
84957;BME280;75252;45.438;-73.814;2024-01-15T00:53:41;100732.34;;;-4.86;72.06
84957;BME280;75252;45.438;-73.814;2024-01-15T00:56:07;100741.78;;;-4.90;72.79
84957;BME280;75252;45.438;-73.814;2024-01-15T00:58:32;100741.78;;;-4.88;71.37
84957;BME280;75252;45.438;-73.814;2024-01-15T01:00:58;100748.63;;;-4.92;70.48
84957;BME280;75252;45.438;-73.814;2024-01-15T01:03:24;100764.94;;;-4.94;71.11
84957;BME280;75252;45.438;-73.814;2024-01-15T01:05:50;100768.38;;;-4.95;70.49
84957;BME280;75252;45.438;-73.814;2024-01-15T01:08:16;100760.50;;;-5.01;70.13
84957;BME280;75252;45.438;-73.814;2024-01-15T01:10:42;100778.50;;;-5.06;71.47
84957;BME280;75252;45.438;-73.814;2024-01-15T01:13:11;100779.31;;;-5.08;72.27
84957;BME280;75252;45.438;-73.814;2024-01-15T01:15:37;100787.00;;;-5.11;72.88
84957;BME280;75252;45.438;-73.814;2024-01-15T01:18:04;100791.28;;;-5.13;72.87
84957;BME280;75252;45.438;-73.814;2024-01-15T01:20:30;100789.53;;;-5.13;71.93
84957;BME280;75252;45.438;-73.814;2024-01-15T01:22:56;100792.94;;;-5.17;73.76
84957;BME280;75252;45.438;-73.814;2024-01-15T01:25:22;100811.06;;;-5.15;73.50
84957;BME280;75252;45.438;-73.814;2024-01-15T01:27:47;100812.66;;;-5.20;74.41
84957;BME280;75252;45.438;-73.814;2024-01-15T01:30:13;100806.44;;;-5.28;74.37
84957;BME280;75252;45.438;-73.814;2024-01-15T01:32:39;100826.47;;;-5.18;74.00
84957;BME280;75252;45.438;-73.814;2024-01-15T01:35:05;100829.94;;;-5.18;74.62
84957;BME280;75252;45.438;-73.814;2024-01-15T01:37:32;100830.66;;;-5.25;75.36
84957;BME280;75252;45.438;-73.814;2024-01-15T01:39:59;100833.25;;;-5.25;75.18
84957;BME280;75252;45.438;-73.814;2024-01-15T01:42:25;100840.91;;;-5.28;75.14
84957;BME280;75252;45.438;-73.814;2024-01-15T01:44:51;100851.19;;;-5.31;75.74
84957;BME280;75252;45.438;-73.814;2024-01-15T01:47:17;100844.13;;;-5.38;77.80
84957;BME280;75252;45.438;-73.814;2024-01-15T01:49:44;100853.47;;;-5.45;77.82
84957;BME280;75252;45.438;-73.814;2024-01-15T01:52:10;100850.84;;;-5.46;78.43
84957;BME280;75252;45.438;-73.814;2024-01-15T01:54:37;100865.44;;;-5.48;78.73
84957;BME280;75252;45.438;-73.814;2024-01-15T01:57:04;100870.50;;;-5.53;79.87
84957;BME280;75252;45.438;-73.814;2024-01-15T01:59:34;100874.69;;;-5.58;80.03
84957;BME280;75252;45.438;-73.814;2024-01-15T02:02:03;100880.59;;;-5.62;81.06
84957;BME280;75252;45.438;-73.814;2024-01-15T02:04:29;100894.28;;;-5.66;81.28
84957;BME280;75252;45.438;-73.814;2024-01-15T02:06:56;100893.31;;;-5.71;79.86
84957;BME280;75252;45.438;-73.814;2024-01-15T02:09:22;100910.31;;;-5.79;79.10
84957;BME280;75252;45.438;-73.814;2024-01-15T02:11:48;100912.72;;;-5.88;80.90
84957;BME280;75252;45.438;-73.814;2024-01-15T02:14:15;100917.66;;;-5.95;80.00
84957;BME280;75252;45.438;-73.814;2024-01-15T02:16:41;100907.16;;;-6.03;81.10
84957;BME280;75252;45.438;-73.814;2024-01-15T02:19:07;100927.63;;;-6.09;78.67
84957;BME280;75252;45.438;-73.814;2024-01-15T02:21:33;100933.59;;;-6.11;80.60
84957;BME280;75252;45.438;-73.814;2024-01-15T02:23:59;100934.28;;;-6.17;80.26
84957;BME280;75252;45.438;-73.814;2024-01-15T02:26:25;100948.75;;;-6.23;78.43
84957;BME280;75252;45.438;-73.814;2024-01-15T02:28:51;100945.28;;;-6.24;78.50
84957;BME280;75252;45.438;-73.814;2024-01-15T02:31:18;100949.41;;;-6.31;77.27
84957;BME280;75252;45.438;-73.814;2024-01-15T02:33:44;100951.97;;;-6.31;76.58
84957;BME280;75252;45.438;-73.814;2024-01-15T02:36:11;100956.28;;;-6.31;77.63
84957;BME280;75252;45.438;-73.814;2024-01-15T02:38:38;100970.91;;;-6.30;76.54
84957;BME280;75252;45.438;-73.814;2024-01-15T02:41:04;100972.44;;;-6.37;78.68
84957;BME280;75252;45.438;-73.814;2024-01-15T02:43:30;100984.50;;;-6.37;78.88
84957;BME280;75252;45.438;-73.814;2024-01-15T02:45:56;100985.97;;;-6.45;79.58
84957;BME280;75252;45.438;-73.814;2024-01-15T02:48:21;100994.63;;;-6.43;80.17
84957;BME280;75252;45.438;-73.814;2024-01-15T02:50:47;100998.88;;;-6.45;79.43
84957;BME280;75252;45.438;-73.814;2024-01-15T02:53:13;101008.34;;;-6.44;80.20
84957;BME280;75252;45.438;-73.814;2024-01-15T02:55:39;101008.44;;;-6.41;78.78
84957;BME280;75252;45.438;-73.814;2024-01-15T02:58:05;101019.50;;;-6.45;79.77
84957;BME280;75252;45.438;-73.814;2024-01-15T03:00:31;101024.66;;;-6.45;78.64
84957;BME280;75252;45.438;-73.814;2024-01-15T03:02:57;101021.19;;;-6.46;79.95
84957;BME280;75252;45.438;-73.814;2024-01-15T03:05:23;101032.41;;;-6.45;80.26
84957;BME280;75252;45.438;-73.814;2024-01-15T03:07:49;101028.97;;;-6.44;78.14
84957;BME280;75252;45.438;-73.814;2024-01-15T03:10:15;101044.47;;;-6.43;78.87
84957;BME280;75252;45.438;-73.814;2024-01-15T03:12:41;101041.09;;;-6.42;77.33
84957;BME280;75252;45.438;-73.814;2024-01-15T03:15:07;101052.41;;;-6.37;75.92
84957;BME280;75252;45.438;-73.814;2024-01-15T03:17:33;101054.91;;;-6.40;76.38
84957;BME280;75252;45.438;-73.814;2024-01-15T03:19:59;101057.53;;;-6.38;75.39
84957;BME280;75252;45.438;-73.814;2024-01-15T03:22:24;101060.81;;;-6.44;75.16
84957;BME280;75252;45.438;-73.814;2024-01-15T03:24:52;101067.59;;;-6.47;75.67
84957;BME280;75252;45.438;-73.814;2024-01-15T03:27:18;101080.44;;;-6.49;74.96
84957;BME280;75252;45.438;-73.814;2024-01-15T03:29:44;101075.34;;;-6.46;74.25
84957;BME280;75252;45.438;-73.814;2024-01-15T03:32:09;101088.19;;;-6.49;75.89
84957;BME280;75252;45.438;-73.814;2024-01-15T03:34:35;101087.28;;;-6.49;75.24
84957;BME280;75252;45.438;-73.814;2024-01-15T03:37:01;101083.75;;;-6.53;75.08
84957;BME280;75252;45.438;-73.814;2024-01-15T03:39:27;101089.94;;;-6.46;74.83
84957;BME280;75252;45.438;-73.814;2024-01-15T03:41:53;101086.59;;;-6.44;75.24
84957;BME280;75252;45.438;-73.814;2024-01-15T03:44:19;101093.78;;;-6.34;74.19
84957;BME280;75252;45.438;-73.814;2024-01-15T03:46:45;101098.06;;;-6.34;74.32
84957;BME280;75252;45.438;-73.814;2024-01-15T03:49:11;101111.06;;;-6.31;73.67
84957;BME280;75252;45.438;-73.814;2024-01-15T03:51:37;101114.66;;;-6.26;73.88
84957;BME280;75252;45.438;-73.814;2024-01-15T03:54:03;101112.91;;;-6.27;74.42
84957;BME280;75252;45.438;-73.814;2024-01-15T03:56:29;101121.69;;;-6.20;73.91
84957;BME280;75252;45.438;-73.814;2024-01-15T03:58:55;101113.16;;;-6.18;72.57
84957;BME280;75252;45.438;-73.814;2024-01-15T04:01:20;101133.22;;;-6.09;72.15
84957;BME280;75252;45.438;-73.814;2024-01-15T04:03:46;101127.13;;;-6.11;73.64
84957;BME280;75252;45.438;-73.814;2024-01-15T04:06:12;101129.16;;;-6.01;71.01
84957;BME280;75252;45.438;-73.814;2024-01-15T04:08:38;101133.28;;;-6.06;70.95
84957;BME280;75252;45.438;-73.814;2024-01-15T04:11:04;101141.88;;;-6.07;70.94
84957;BME280;75252;45.438;-73.814;2024-01-15T04:13:33;101145.28;;;-6.08;71.38
84957;BME280;75252;45.438;-73.814;2024-01-15T04:16:00;101155.59;;;-6.08;71.33
84957;BME280;75252;45.438;-73.814;2024-01-15T04:18:26;101166.69;;;-6.11;70.36
84957;BME280;75252;45.438;-73.814;2024-01-15T04:20:52;101165.13;;;-6.07;70.65
84957;BME280;75252;45.438;-73.814;2024-01-15T04:23:17;101178.13;;;-6.03;68.71
84957;BME280;75252;45.438;-73.814;2024-01-15T04:25:43;101183.25;;;-6.04;68.08
84957;BME280;75252;45.438;-73.814;2024-01-15T04:28:11;101189.81;;;-6.15;69.96
84957;BME280;75252;45.438;-73.814;2024-01-15T04:30:37;101177.81;;;-6.13;69.43
84957;BME280;75252;45.438;-73.814;2024-01-15T04:33:03;101185.50;;;-6.15;69.25
84957;BME280;75252;45.438;-73.814;2024-01-15T04:35:30;101191.31;;;-6.22;68.97
84957;BME280;75252;45.438;-73.814;2024-01-15T04:37:56;101194.47;;;-6.31;70.72
84957;BME280;75252;45.438;-73.814;2024-01-15T04:40:22;101200.22;;;-6.39;69.29
84957;BME280;75252;45.438;-73.814;2024-01-15T04:42:48;101205.28;;;-6.42;69.36
84957;BME280;75252;45.438;-73.814;2024-01-15T04:45:14;101207.63;;;-6.50;67.84
84957;BME280;75252;45.438;-73.814;2024-01-15T04:47:40;101194.53;;;-6.56;67.70
84957;BME280;75252;45.438;-73.814;2024-01-15T04:50:06;101209.84;;;-6.60;67.13
84957;BME280;75252;45.438;-73.814;2024-01-15T04:52:32;101217.66;;;-6.59;65.27
84957;BME280;75252;45.438;-73.814;2024-01-15T04:54:58;101229.50;;;-6.64;65.65
84957;BME280;75252;45.438;-73.814;2024-01-15T04:57:24;101226.66;;;-6.71;66.79
84957;BME280;75252;45.438;-73.814;2024-01-15T04:59:50;101224.97;;;-6.71;65.65
84957;BME280;75252;45.438;-73.814;2024-01-15T05:02:15;101226.56;;;-6.74;66.45
84957;BME280;75252;45.438;-73.814;2024-01-15T05:04:41;101230.94;;;-6.72;65.85
84957;BME280;75252;45.438;-73.814;2024-01-15T05:07:07;101239.97;;;-6.59;64.18
84957;BME280;75252;45.438;-73.814;2024-01-15T05:09:33;101247.75;;;-6.58;63.88
84957;BME280;75252;45.438;-73.814;2024-01-15T05:11:59;101243.34;;;-6.60;64.64
84957;BME280;75252;45.438;-73.814;2024-01-15T05:14:25;101245.69;;;-6.68;64.87
84957;BME280;75252;45.438;-73.814;2024-01-15T05:16:51;101247.66;;;-6.61;64.13
84957;BME280;75252;45.438;-73.814;2024-01-15T05:19:18;101256.31;;;-6.59;64.63
84957;BME280;75252;45.438;-73.814;2024-01-15T05:21:44;101262.06;;;-6.66;63.67
84957;BME280;75252;45.438;-73.814;2024-01-15T05:24:09;101257.97;;;-6.61;64.41
84957;BME280;75252;45.438;-73.814;2024-01-15T05:26:35;101257.97;;;-6.61;63.85
84957;BME280;75252;45.438;-73.814;2024-01-15T05:29:01;101265.63;;;-6.62;64.74
84957;BME280;75252;45.438;-73.814;2024-01-15T05:31:27;101272.38;;;-6.66;63.30
84957;BME280;75252;45.438;-73.814;2024-01-15T05:33:53;101273.22;;;-6.67;63.67
84957;BME280;75252;45.438;-73.814;2024-01-15T05:36:19;101270.28;;;-6.77;63.79
84957;BME280;75252;45.438;-73.814;2024-01-15T05:38:45;101264.16;;;-6.81;65.68
84957;BME280;75252;45.438;-73.814;2024-01-15T05:41:11;101267.53;;;-6.82;64.26
84957;BME280;75252;45.438;-73.814;2024-01-15T05:43:36;101270.72;;;-6.89;64.07
84957;BME280;75252;45.438;-73.814;2024-01-15T05:46:02;101271.44;;;-6.93;65.33
84957;BME280;75252;45.438;-73.814;2024-01-15T05:48:28;101279.56;;;-6.82;63.26
84957;BME280;75252;45.438;-73.814;2024-01-15T05:50:54;101279.34;;;-6.88;64.91
84957;BME280;75252;45.438;-73.814;2024-01-15T05:53:20;101280.56;;;-7.02;65.13
84957;BME280;75252;45.438;-73.814;2024-01-15T05:55:46;101297.22;;;-6.93;63.92
84957;BME280;75252;45.438;-73.814;2024-01-15T05:58:12;101303.69;;;-6.80;63.25
84957;BME280;75252;45.438;-73.814;2024-01-15T06:00:37;101309.91;;;-6.74;63.33
84957;BME280;75252;45.438;-73.814;2024-01-15T06:03:03;101303.03;;;-6.75;62.86
84957;BME280;75252;45.438;-73.814;2024-01-15T06:05:30;101305.56;;;-6.76;61.62
84957;BME280;75252;45.438;-73.814;2024-01-15T06:07:55;101310.75;;;-6.75;63.00
84957;BME280;75252;45.438;-73.814;2024-01-15T06:10:21;101308.44;;;-6.67;61.42
84957;BME280;75252;45.438;-73.814;2024-01-15T06:12:47;101316.13;;;-6.69;62.13
84957;BME280;75252;45.438;-73.814;2024-01-15T06:15:13;101309.06;;;-6.74;63.33
84957;BME280;75252;45.438;-73.814;2024-01-15T06:17:39;101332.31;;;-6.73;61.98
84957;BME280;75252;45.438;-73.814;2024-01-15T06:20:05;101314.84;;;-6.80;60.63
84957;BME280;75252;45.438;-73.814;2024-01-15T06:22:32;101323.75;;;-6.72;59.34
84957;BME280;75252;45.438;-73.814;2024-01-15T06:24:57;101330.31;;;-6.80;60.80
84957;BME280;75252;45.438;-73.814;2024-01-15T06:27:23;101339.69;;;-6.82;59.45
84957;BME280;75252;45.438;-73.814;2024-01-15T06:29:49;101323.91;;;-6.91;59.47
84957;BME280;75252;45.438;-73.814;2024-01-15T06:32:15;101335.22;;;-6.87;60.80
84957;BME280;75252;45.438;-73.814;2024-01-15T06:34:41;101342.09;;;-6.88;59.56
84957;BME280;75252;45.438;-73.814;2024-01-15T06:37:07;101343.66;;;-6.91;61.01
84957;BME280;75252;45.438;-73.814;2024-01-15T06:39:34;101333.28;;;-6.93;61.34
84957;BME280;75252;45.438;-73.814;2024-01-15T06:42:00;101348.59;;;-6.97;60.38
84957;BME280;75252;45.438;-73.814;2024-01-15T06:44:25;101349.25;;;-7.03;62.40
84957;BME280;75252;45.438;-73.814;2024-01-15T06:46:51;101350.84;;;-7.06;62.15
84957;BME280;75252;45.438;-73.814;2024-01-15T06:49:17;101349.25;;;-7.03;60.26
84957;BME280;75252;45.438;-73.814;2024-01-15T06:51:43;101348.53;;;-6.99;59.97
84957;BME280;75252;45.438;-73.814;2024-01-15T06:54:09;101344.94;;;-7.04;62.13
84957;BME280;75252;45.438;-73.814;2024-01-15T06:56:35;101350.09;;;-7.04;61.48
84957;BME280;75252;45.438;-73.814;2024-01-15T06:59:01;101361.38;;;-7.00;61.71
84957;BME280;75252;45.438;-73.814;2024-01-15T07:01:27;101367.28;;;-7.03;60.47
84957;BME280;75252;45.438;-73.814;2024-01-15T07:03:52;101371.63;;;-7.02;60.11
84957;BME280;75252;45.438;-73.814;2024-01-15T07:06:18;101385.22;;;-7.06;59.13
84957;BME280;75252;45.438;-73.814;2024-01-15T07:08:46;101397.97;;;-7.09;61.36
84957;BME280;75252;45.438;-73.814;2024-01-15T07:11:11;101412.50;;;-7.11;61.63
84957;BME280;75252;45.438;-73.814;2024-01-15T07:13:37;101413.16;;;-7.17;60.66
84957;BME280;75252;45.438;-73.814;2024-01-15T07:16:04;101407.25;;;-7.14;61.12
84957;BME280;75252;45.438;-73.814;2024-01-15T07:18:30;101415.06;;;-7.11;61.59
84957;BME280;75252;45.438;-73.814;2024-01-15T07:20:56;101400.25;;;-7.17;61.64
84957;BME280;75252;45.438;-73.814;2024-01-15T07:23:22;101407.06;;;-7.19;62.67
84957;BME280;75252;45.438;-73.814;2024-01-15T07:25:48;101422.66;;;-7.15;62.09
84957;BME280;75252;45.438;-73.814;2024-01-15T07:28:14;101412.25;;;-7.17;63.40
84957;BME280;75252;45.438;-73.814;2024-01-15T07:30:40;101406.31;;;-7.16;63.09
84957;BME280;75252;45.438;-73.814;2024-01-15T07:33:06;101413.28;;;-7.13;63.23
84957;BME280;75252;45.438;-73.814;2024-01-15T07:35:32;101408.97;;;-7.13;62.40
84957;BME280;75252;45.438;-73.814;2024-01-15T07:37:57;101419.38;;;-7.11;63.90
84957;BME280;75252;45.438;-73.814;2024-01-15T07:40:24;101418.59;;;-7.09;62.90
84957;BME280;75252;45.438;-73.814;2024-01-15T07:42:51;101408.31;;;-7.07;65.30
84957;BME280;75252;45.438;-73.814;2024-01-15T07:45:17;101421.22;;;-7.07;63.32
84957;BME280;75252;45.438;-73.814;2024-01-15T07:47:43;101419.69;;;-7.02;62.26
84957;BME280;75252;45.438;-73.814;2024-01-15T07:50:10;101425.03;;;-6.98;63.29
84957;BME280;75252;45.438;-73.814;2024-01-15T07:52:36;101431.94;;;-6.97;62.94
84957;BME280;75252;45.438;-73.814;2024-01-15T07:55:02;101440.59;;;-6.95;63.34
84957;BME280;75252;45.438;-73.814;2024-01-15T07:57:30;101446.75;;;-6.91;62.71
84957;BME280;75252;45.438;-73.814;2024-01-15T07:59:56;101455.41;;;-6.89;63.01
84957;BME280;75252;45.438;-73.814;2024-01-15T08:02:22;101451.84;;;-6.93;63.16
84957;BME280;75252;45.438;-73.814;2024-01-15T08:04:48;101448.56;;;-6.89;62.43
84957;BME280;75252;45.438;-73.814;2024-01-15T08:07:14;101456.41;;;-6.86;62.33
84957;BME280;75252;45.438;-73.814;2024-01-15T08:09:40;101464.97;;;-6.87;63.49
84957;BME280;75252;45.438;-73.814;2024-01-15T08:12:06;101472.75;;;-6.85;64.28
84957;BME280;75252;45.438;-73.814;2024-01-15T08:14:32;101475.56;;;-6.79;65.31
84957;BME280;75252;45.438;-73.814;2024-01-15T08:16:58;101472.28;;;-6.75;63.45
84957;BME280;75252;45.438;-73.814;2024-01-15T08:19:24;101458.91;;;-6.65;64.70
84957;BME280;75252;45.438;-73.814;2024-01-15T08:21:50;101456.44;;;-6.62;64.42
84957;BME280;75252;45.438;-73.814;2024-01-15T08:24:15;101461.81;;;-6.56;64.93
84957;BME280;75252;45.438;-73.814;2024-01-15T08:26:42;101471.44;;;-6.52;64.91
84957;BME280;75252;45.438;-73.814;2024-01-15T08:29:08;101475.88;;;-6.48;64.98
84957;BME280;75252;45.438;-73.814;2024-01-15T08:31:34;101470.44;;;-6.56;65.38
84957;BME280;75252;45.438;-73.814;2024-01-15T08:34:00;101472.28;;;-6.53;64.59
84957;BME280;75252;45.438;-73.814;2024-01-15T08:36:28;101487.69;;;-6.55;65.81
84957;BME280;75252;45.438;-73.814;2024-01-15T08:38:56;101492.19;;;-6.49;64.00
84957;BME280;75252;45.438;-73.814;2024-01-15T08:41:22;101488.84;;;-6.47;64.82
84957;BME280;75252;45.438;-73.814;2024-01-15T08:43:48;101473.19;;;-6.51;63.94
84957;BME280;75252;45.438;-73.814;2024-01-15T08:46:14;101474.84;;;-6.53;63.63
84957;BME280;75252;45.438;-73.814;2024-01-15T08:48:40;101485.75;;;-6.60;64.05
84957;BME280;75252;45.438;-73.814;2024-01-15T08:51:06;101494.91;;;-6.68;63.43
84957;BME280;75252;45.438;-73.814;2024-01-15T08:53:33;101484.28;;;-6.76;62.96
84957;BME280;75252;45.438;-73.814;2024-01-15T08:55:59;101486.06;;;-6.75;62.38
84957;BME280;75252;45.438;-73.814;2024-01-15T08:58:25;101484.94;;;-6.81;62.54
84957;BME280;75252;45.438;-73.814;2024-01-15T09:00:51;101491.78;;;-6.82;61.67
84957;BME280;75252;45.438;-73.814;2024-01-15T09:03:17;101500.13;;;-6.89;63.83
84957;BME280;75252;45.438;-73.814;2024-01-15T09:05:43;101494.78;;;-6.93;63.32
84957;BME280;75252;45.438;-73.814;2024-01-15T09:08:09;101493.09;;;-6.93;62.42
84957;BME280;75252;45.438;-73.814;2024-01-15T09:10:35;101504.09;;;-6.97;63.26
84957;BME280;75252;45.438;-73.814;2024-01-15T09:13:01;101515.47;;;-6.92;62.33
84957;BME280;75252;45.438;-73.814;2024-01-15T09:15:29;101517.91;;;-6.95;63.38
84957;BME280;75252;45.438;-73.814;2024-01-15T09:17:55;101504.03;;;-6.98;62.97
84957;BME280;75252;45.438;-73.814;2024-01-15T09:20:22;101497.00;;;-7.02;64.46
84957;BME280;75252;45.438;-73.814;2024-01-15T09:22:49;101502.97;;;-7.03;63.50
84957;BME280;75252;45.438;-73.814;2024-01-15T09:25:15;101498.66;;;-7.04;62.87
84957;BME280;75252;45.438;-73.814;2024-01-15T09:27:40;101502.97;;;-7.03;63.24
84957;BME280;75252;45.438;-73.814;2024-01-15T09:30:07;101499.63;;;-7.01;64.28
84957;BME280;75252;45.438;-73.814;2024-01-15T09:32:33;101500.47;;;-7.02;62.06
84957;BME280;75252;45.438;-73.814;2024-01-15T09:34:59;101502.97;;;-7.03;63.54
84957;BME280;75252;45.438;-73.814;2024-01-15T09:37:25;101504.69;;;-7.04;63.15
84957;BME280;75252;45.438;-73.814;2024-01-15T09:39:51;101506.38;;;-7.04;62.33
84957;BME280;75252;45.438;-73.814;2024-01-15T09:42:17;101504.59;;;-7.05;64.31
84957;BME280;75252;45.438;-73.814;2024-01-15T09:44:44;101511.47;;;-7.06;61.75
84957;BME280;75252;45.438;-73.814;2024-01-15T09:47:11;101509.59;;;-7.10;63.26
84957;BME280;75252;45.438;-73.814;2024-01-15T09:49:38;101505.38;;;-7.08;62.55
84957;BME280;75252;45.438;-73.814;2024-01-15T09:52:07;101513.75;;;-7.13;63.29
84957;BME280;75252;45.438;-73.814;2024-01-15T09:54:33;101511.97;;;-7.14;62.19
84957;BME280;75252;45.438;-73.814;2024-01-15T09:57:00;101524.91;;;-7.13;62.39
84957;BME280;75252;45.438;-73.814;2024-01-15T09:59:26;101525.75;;;-7.14;62.85
84957;BME280;75252;45.438;-73.814;2024-01-15T10:01:55;101533.53;;;-7.12;63.03
84957;BME280;75252;45.438;-73.814;2024-01-15T10:04:22;101515.84;;;-7.26;62.41
84957;BME280;75252;45.438;-73.814;2024-01-15T10:06:50;101533.44;;;-7.15;64.32
84957;BME280;75252;45.438;-73.814;2024-01-15T10:09:17;101534.22;;;-7.17;63.19
84957;BME280;75252;45.438;-73.814;2024-01-15T10:11:44;101532.41;;;-7.19;63.22
84957;BME280;75252;45.438;-73.814;2024-01-15T10:14:11;101540.13;;;-7.19;64.18
84957;BME280;75252;45.438;-73.814;2024-01-15T10:16:41;101540.06;;;-7.21;64.60
84957;BME280;75252;45.438;-73.814;2024-01-15T10:19:08;101548.75;;;-7.19;63.20
84957;BME280;75252;45.438;-73.814;2024-01-15T10:21:34;101547.16;;;-7.15;63.65
84957;BME280;75252;45.438;-73.814;2024-01-15T10:24:01;101548.06;;;-7.14;64.53
84957;BME280;75252;45.438;-73.814;2024-01-15T10:26:28;101543.53;;;-7.20;64.56
84957;BME280;75252;45.438;-73.814;2024-01-15T10:28:54;101540.25;;;-7.16;64.84
84957;BME280;75252;45.438;-73.814;2024-01-15T10:31:20;101550.56;;;-7.16;64.76
84957;BME280;75252;45.438;-73.814;2024-01-15T10:33:50;101548.69;;;-7.20;64.80
84957;BME280;75252;45.438;-73.814;2024-01-15T10:36:17;101549.63;;;-7.18;64.69
84957;BME280;75252;45.438;-73.814;2024-01-15T10:38:44;101546.91;;;-7.21;65.44
84957;BME280;75252;45.438;-73.814;2024-01-15T10:41:10;101559.19;;;-7.15;65.28
84957;BME280;75252;45.438;-73.814;2024-01-15T10:43:36;101562.75;;;-7.12;66.00
84957;BME280;75252;45.438;-73.814;2024-01-15T10:46:03;101559.50;;;-7.08;64.21
84957;BME280;75252;45.438;-73.814;2024-01-15T10:48:30;101559.09;;;-7.17;66.67
84957;BME280;75252;45.438;-73.814;2024-01-15T10:51:01;101562.56;;;-7.17;67.00
84957;BME280;75252;45.438;-73.814;2024-01-15T10:53:38;101576.19;;;-7.19;67.55
84957;BME280;75252;45.438;-73.814;2024-01-15T10:56:05;101561.50;;;-7.22;66.71
84957;BME280;75252;45.438;-73.814;2024-01-15T10:58:33;101572.69;;;-7.21;67.72
84957;BME280;75252;45.438;-73.814;2024-01-15T11:01:01;101571.25;;;-7.14;67.98
84957;BME280;75252;45.438;-73.814;2024-01-15T11:03:28;101576.44;;;-7.13;67.52
84957;BME280;75252;45.438;-73.814;2024-01-15T11:05:54;101574.44;;;-7.20;67.48
84957;BME280;75252;45.438;-73.814;2024-01-15T11:08:20;101583.22;;;-7.15;67.52
84957;BME280;75252;45.438;-73.814;2024-01-15T11:10:51;101575.50;;;-7.15;67.07
84957;BME280;75252;45.438;-73.814;2024-01-15T11:13:22;101586.75;;;-7.13;68.56
84957;BME280;75252;45.438;-73.814;2024-01-15T11:16:01;101594.63;;;-7.10;68.05
84957;BME280;75252;45.438;-73.814;2024-01-15T11:18:35;101590.84;;;-7.18;68.09
84957;BME280;75252;45.438;-73.814;2024-01-15T11:28:55;101609.41;;;-7.06;67.28
84957;BME280;75252;45.438;-73.814;2024-01-15T11:32:14;101616.59;;;-6.97;67.37
84957;BME280;75252;45.438;-73.814;2024-01-15T11:34:14;101624.41;;;-6.96;67.10
84957;BME280;75252;45.438;-73.814;2024-01-15T11:42:03;101629.00;;;-6.89;68.03
84957;BME280;75252;45.438;-73.814;2024-01-15T11:44:30;101628.94;;;-6.90;66.27
84957;BME280;75252;45.438;-73.814;2024-01-15T11:47:06;101645.28;;;-6.90;67.60
84957;BME280;75252;45.438;-73.814;2024-01-15T11:50:02;101645.16;;;-6.93;67.01
84957;BME280;75252;45.438;-73.814;2024-01-15T11:52:41;101651.25;;;-6.91;67.84
84957;BME280;75252;45.438;-73.814;2024-01-15T11:55:22;101654.13;;;-6.83;65.96
84957;BME280;75252;45.438;-73.814;2024-01-15T11:57:53;101649.63;;;-6.89;66.28
84957;BME280;75252;45.438;-73.814;2024-01-15T12:00:22;101649.63;;;-6.89;65.63
84957;BME280;75252;45.438;-73.814;2024-01-15T12:02:49;101641.69;;;-6.93;66.87
84957;BME280;75252;45.438;-73.814;2024-01-15T12:05:19;101654.66;;;-6.92;65.93
84957;BME280;75252;45.438;-73.814;2024-01-15T12:07:48;101658.28;;;-6.87;65.95
84957;BME280;75252;45.438;-73.814;2024-01-15T12:10:17;101660.75;;;-6.90;65.54
84957;BME280;75252;45.438;-73.814;2024-01-15T12:13:00;101661.81;;;-6.85;65.26
84957;BME280;75252;45.438;-73.814;2024-01-15T12:15:30;101660.19;;;-6.83;64.25
84957;BME280;75252;45.438;-73.814;2024-01-15T12:17:57;101671.28;;;-6.84;64.54
84957;BME280;75252;45.438;-73.814;2024-01-15T12:20:24;101669.59;;;-6.83;64.06
84957;BME280;75252;45.438;-73.814;2024-01-15T12:22:50;101670.34;;;-6.86;64.21
84957;BME280;75252;45.438;-73.814;2024-01-15T12:25:16;101683.19;;;-6.87;65.26
84957;BME280;75252;45.438;-73.814;2024-01-15T12:27:42;101673.75;;;-6.87;64.14
84957;BME280;75252;45.438;-73.814;2024-01-15T12:30:11;101672.88;;;-6.87;64.95
84957;BME280;75252;45.438;-73.814;2024-01-15T12:32:37;101676.28;;;-6.88;64.85
84957;BME280;75252;45.438;-73.814;2024-01-15T12:35:04;101667.03;;;-6.83;65.11
84957;BME280;75252;45.438;-73.814;2024-01-15T12:37:30;101670.44;;;-6.84;65.24
84957;BME280;75252;45.438;-73.814;2024-01-15T12:39:58;101671.38;;;-6.82;64.39
84957;BME280;75252;45.438;-73.814;2024-01-15T12:42:25;101675.44;;;-6.87;64.79
84957;BME280;75252;45.438;-73.814;2024-01-15T12:44:51;101678.16;;;-6.84;64.58